Terminal Aerodrome Forecast
Issued by NWS Kansas City/Pleasant Hill, MO

Home | Current Version | Previous Version | Text Only | Print | Product List | Glossary On
Versions: 1 2 3 4 5 6 7 8 9 10 11 12 13 14
734
FTUS43 KEAX 201121
TAFMCI
TAF
KMCI 201121Z 2012/2112 23009KT P6SM BKN120
     FM201600 26011KT P6SM SCT100
     FM202100 24007KT P6SM VCSH SCT070 BKN100
     FM210200 18006KT P6SM SCT200=

USA.gov is the U.S. government's official web portal to all federal, state and local government web resources and services.